Time;durP1;ratioP1;P1;durP2;ratioP2;P2;SDS_P1;SDS_P2;PMS_P1;PMS_P2;Temp;Humidity;BMP_temperature;BMP_pressure;BME280_temperature;BME280_humidity;BME280_pressure;Samples;Min_cycle;Max_cycle;Signal;HPM_P1;HPM_P2
2022/04/13 00:01:29;;;;;;;4.35;3.05;;;10.20;90.10;;;;;;5050278;28;20078;-54
2022/04/13 00:03:55;;;;;;;3.72;2.90;;;10.20;90.10;;;;;;5049445;28;20086;-55
2022/04/13 00:06:20;;;;;;;6.68;2.97;;;10.20;90.20;;;;;;5049803;28;20502;-50
2022/04/13 00:08:46;;;;;;;4.03;3.13;;;10.10;90.40;;;;;;5051063;28;20025;-51
2022/04/13 00:11:13;;;;;;;4.90;3.53;;;10.10;90.00;;;;;;5050007;28;20052;-56
2022/04/13 00:16:04;;;;;;;4.13;2.95;;;10.10;90.30;;;;;;5026035;22;20124;-62
2022/04/13 00:18:30;;;;;;;5.45;2.92;;;10.20;89.80;;;;;;5009662;28;20075;-59
2022/04/13 00:20:56;;;;;;;4.15;2.88;;;10.10;90.40;;;;;;5010224;28;20021;-61
2022/04/13 00:23:21;;;;;;;4.40;3.13;;;10.10;90.60;;;;;;5009642;28;20074;-61
2022/04/13 00:25:47;;;;;;;4.78;3.67;;;10.10;90.60;;;;;;5010232;28;20065;-59
2022/04/13 00:28:14;;;;;;;4.03;2.92;;;10.10;90.30;;;;;;5006580;28;20480;-61
2022/04/13 00:30:39;;;;;;;5.43;3.40;;;10.10;90.50;;;;;;5010250;28;20049;-60
2022/04/13 00:33:05;;;;;;;10.07;4.07;;;10.10;90.40;;;;;;5008734;28;20049;-61
2022/04/13 00:35:31;;;;;;;4.47;3.17;;;10.10;90.90;;;;;;5009383;28;20049;-59
2022/04/13 00:37:57;;;;;;;3.70;2.90;;;10.10;90.50;;;;;;5010068;28;20029;-57
2022/04/13 00:40:23;;;;;;;4.38;3.17;;;10.10;90.80;;;;;;5009716;28;20511;-58
2022/04/13 00:42:49;;;;;;;6.60;3.30;;;10.10;90.40;;;;;;5009596;28;20034;-56
2022/04/13 00:45:14;;;;;;;4.82;2.92;;;10.00;90.70;;;;;;5009809;28;20114;-57
2022/04/13 00:47:41;;;;;;;4.97;2.72;;;10.00;90.90;;;;;;5009730;28;20496;-59
2022/04/13 00:50:08;;;;;;;4.75;3.22;;;10.00;90.40;;;;;;5009617;28;20050;-58
2022/04/13 00:52:37;;;;;;;4.65;2.80;;;10.00;90.70;;;;;;5009245;28;20018;-57
2022/04/13 00:55:07;;;;;;;9.07;3.70;;;10.00;91.20;;;;;;5009817;28;20117;-57
2022/04/13 00:57:36;;;;;;;7.18;3.25;;;10.00;91.20;;;;;;5009144;28;20053;-58
2022/04/13 01:00:04;;;;;;;7.38;3.80;;;10.00;91.00;;;;;;5007346;28;20511;-58
2022/04/13 01:02:31;;;;;;;4.63;3.28;;;10.00;91.00;;;;;;5006884;28;20033;-60
2022/04/13 01:05:06;;;;;;;6.00;3.38;;;9.90;91.30;;;;;;5008575;28;20038;-60
2022/04/13 01:07:33;;;;;;;4.05;2.83;;;9.90;91.10;;;;;;5009702;28;20140;-59
2022/04/13 01:10:02;;;;;;;4.65;3.65;;;9.90;91.00;;;;;;5010010;28;20099;-59
2022/04/13 01:12:27;;;;;;;5.85;3.50;;;9.90;91.30;;;;;;5009568;28;20104;-57
2022/04/13 01:14:53;;;;;;;7.97;3.83;;;9.90;91.70;;;;;;5003391;28;20127;-59
2022/04/13 01:17:19;;;;;;;5.07;3.63;;;9.80;91.40;;;;;;5018670;28;20049;-59
2022/04/13 01:19:48;;;;;;;4.43;3.20;;;9.80;91.60;;;;;;5009669;28;20097;-59
2022/04/13 01:22:20;;;;;;;5.68;3.85;;;9.80;91.70;;;;;;4994063;28;20104;-59
2022/04/13 01:24:47;;;;;;;6.78;3.75;;;9.70;91.90;;;;;;4989859;28;20022;-59
2022/04/13 01:27:14;;;;;;;6.07;3.50;;;9.70;92.00;;;;;;4990039;28;20489;-59
2022/04/13 01:29:44;;;;;;;3.55;3.03;;;9.70;92.10;;;;;;4989852;28;20074;-59
2022/04/13 01:32:11;;;;;;;5.47;4.07;;;9.70;92.30;;;;;;4990052;28;20018;-59
2022/04/13 01:34:36;;;;;;;5.22;3.30;;;9.60;92.50;;;;;;4989731;28;20053;-59
2022/04/13 01:37:03;;;;;;;5.35;3.90;;;9.60;92.70;;;;;;4989747;28;20465;-58
2022/04/13 01:39:29;;;;;;;5.78;3.35;;;9.60;92.50;;;;;;4990148;28;20034;-59
2022/04/13 01:41:54;;;;;;;4.78;3.72;;;9.60;92.20;;;;;;4989969;28;20025;-58
2022/04/13 01:44:20;;;;;;;4.57;3.33;;;9.60;92.90;;;;;;4989682;28;20050;-57
2022/04/13 01:46:46;;;;;;;4.75;3.50;;;9.60;93.50;;;;;;4990141;28;20026;-59
2022/04/13 01:49:11;;;;;;;6.63;3.65;;;9.50;93.10;;;;;;4990170;28;20078;-60
2022/04/13 01:51:37;;;;;;;6.95;3.78;;;9.50;93.00;;;;;;4991004;28;20053;-59
2022/04/13 01:54:03;;;;;;;4.53;3.53;;;9.50;92.90;;;;;;4993286;28;20031;-59
2022/04/13 01:56:28;;;;;;;6.25;3.58;;;9.60;93.20;;;;;;4993279;28;20046;-58
2022/04/13 01:58:54;;;;;;;6.88;3.47;;;9.50;93.10;;;;;;4993443;28;20030;-58
2022/04/13 02:01:19;;;;;;;4.90;4.03;;;9.50;93.20;;;;;;4993337;28;20584;-60
2022/04/13 02:03:45;;;;;;;6.35;3.55;;;9.50;93.20;;;;;;4992980;28;20053;-57
2022/04/13 02:06:11;;;;;;;4.07;3.60;;;9.50;93.30;;;;;;4993384;28;20031;-57
2022/04/13 02:08:36;;;;;;;5.13;3.78;;;9.50;93.50;;;;;;4993145;28;20481;-58
2022/04/13 02:11:02;;;;;;;5.30;3.92;;;9.50;93.70;;;;;;4993256;28;20027;-58
2022/04/13 02:13:28;;;;;;;5.03;3.40;;;9.50;94.00;;;;;;4992926;28;20026;-60
2022/04/13 02:15:54;;;;;;;5.78;3.40;;;9.50;93.40;;;;;;4993078;28;20109;-59
2022/04/13 02:18:20;;;;;;;4.97;4.20;;;9.50;94.10;;;;;;4993921;28;20050;-60
2022/04/13 02:20:45;;;;;;;4.65;4.15;;;9.50;94.10;;;;;;4995887;28;20096;-60
2022/04/13 02:23:11;;;;;;;5.80;3.63;;;9.50;93.70;;;;;;5012370;28;20057;-58
2022/04/13 02:25:37;;;;;;;4.82;3.42;;;9.50;93.60;;;;;;5012370;28;20244;-60
2022/04/13 02:28:04;;;;;;;5.43;4.00;;;9.50;93.90;;;;;;5012320;28;20026;-59
2022/04/13 02:30:30;;;;;;;5.57;3.17;;;9.50;93.90;;;;;;5012392;28;20022;-59
2022/04/13 02:32:55;;;;;;;4.80;3.90;;;9.60;93.90;;;;;;5012061;28;20033;-57
2022/04/13 02:35:21;;;;;;;5.15;3.55;;;9.60;93.90;;;;;;5011642;28;20026;-59
2022/04/13 02:37:47;;;;;;;5.57;4.05;;;9.60;94.00;;;;;;5012207;28;20028;-59
2022/04/13 02:40:13;;;;;;;7.47;3.97;;;9.60;93.90;;;;;;5012363;28;20072;-59
2022/04/13 02:42:39;;;;;;;8.45;3.90;;;9.60;94.20;;;;;;5011806;28;20026;-59
2022/04/13 02:45:05;;;;;;;5.45;4.13;;;9.60;93.90;;;;;;5012555;28;20084;-59
2022/04/13 02:47:35;;;;;;;6.68;4.35;;;9.50;94.10;;;;;;5012244;28;20049;-60
2022/04/13 02:50:01;;;;;;;5.90;3.78;;;9.60;94.30;;;;;;5012035;28;20398;-59
2022/04/13 02:52:30;;;;;;;4.65;3.47;;;9.50;94.20;;;;;;5011802;28;20026;-60
2022/04/13 02:54:56;;;;;;;7.10;3.90;;;9.50;94.90;;;;;;5010268;28;20045;-60
2022/04/13 02:57:22;;;;;;;5.65;3.63;;;9.40;94.70;;;;;;5011903;28;20085;-59
2022/04/13 02:59:49;;;;;;;5.28;3.70;;;9.40;94.90;;;;;;5012996;28;20037;-59
2022/04/13 03:02:15;;;;;;;4.40;3.95;;;9.40;95.30;;;;;;5011728;28;20101;-59
2022/04/13 03:04:43;;;;;;;7.13;4.13;;;9.40;95.00;;;;;;5011294;28;20042;-60
2022/04/13 03:07:14;;;;;;;5.65;3.92;;;9.40;95.30;;;;;;5011711;28;20365;-60
2022/04/13 03:09:39;;;;;;;7.00;4.28;;;9.40;95.80;;;;;;5011774;28;20405;-59
2022/04/13 03:12:06;;;;;;;5.75;4.00;;;9.40;95.40;;;;;;5011605;28;20113;-59
2022/04/13 03:14:33;;;;;;;6.70;3.85;;;9.40;95.90;;;;;;5011144;28;20065;-59
2022/04/13 03:16:58;;;;;;;5.13;4.07;;;9.40;95.60;;;;;;5011739;28;20037;-61
2022/04/13 03:19:24;;;;;;;5.88;3.60;;;9.40;95.40;;;;;;5011652;28;20025;-59
2022/04/13 03:21:51;;;;;;;7.03;3.83;;;9.40;96.20;;;;;;5011467;28;20038;-60
2022/04/13 03:24:18;;;;;;;6.63;4.25;;;9.40;95.70;;;;;;5011237;28;20049;-59
2022/04/13 03:26:43;;;;;;;5.28;3.70;;;9.40;95.90;;;;;;5011274;28;20022;-57
2022/04/13 03:29:09;;;;;;;6.55;3.25;;;9.40;95.80;;;;;;5011332;28;20041;-59
2022/04/13 03:31:35;;;;;;;6.05;4.30;;;9.40;96.20;;;;;;5011318;28;20493;-60
2022/04/13 03:34:01;;;;;;;5.55;4.13;;;9.40;96.00;;;;;;5011169;28;20040;-59
2022/04/13 03:36:26;;;;;;;5.88;3.83;;;9.40;96.20;;;;;;5011366;28;20036;-58
2022/04/13 03:38:52;;;;;;;5.30;3.75;;;9.30;96.20;;;;;;5010748;28;20088;-58
2022/04/13 03:41:18;;;;;;;5.72;3.95;;;9.30;96.40;;;;;;5010755;28;20045;-59
2022/04/13 03:43:43;;;;;;;5.75;3.83;;;9.40;96.30;;;;;;5009395;28;20036;-59
2022/04/13 03:46:09;;;;;;;12.00;4.10;;;9.30;96.50;;;;;;5011106;28;20025;-55
2022/04/13 03:48:34;;;;;;;7.22;4.10;;;9.30;96.40;;;;;;5011210;28;20022;-61
2022/04/13 03:51:00;;;;;;;6.10;3.72;;;9.30;96.10;;;;;;5010673;28;20029;-55
2022/04/13 03:53:26;;;;;;;5.90;3.92;;;9.30;96.80;;;;;;5010009;28;20033;-56
2022/04/13 03:55:52;;;;;;;6.78;4.03;;;9.30;96.70;;;;;;5010573;28;20150;-58
2022/04/13 03:58:17;;;;;;;6.00;4.05;;;9.30;96.90;;;;;;5010466;28;20112;-59
2022/04/13 04:00:43;;;;;;;6.15;3.85;;;9.20;96.70;;;;;;5010638;28;20025;-57
2022/04/13 04:03:09;;;;;;;4.85;3.78;;;9.20;97.00;;;;;;5010432;28;20029;-58
2022/04/13 04:05:35;;;;;;;6.10;4.28;;;9.20;96.80;;;;;;5010393;28;20050;-59
2022/04/13 04:08:00;;;;;;;5.55;3.97;;;9.20;97.20;;;;;;5010393;28;20495;-58
2022/04/13 04:10:26;;;;;;;6.90;3.45;;;9.20;97.40;;;;;;5010207;28;20025;-58
2022/04/13 04:12:52;;;;;;;5.68;4.40;;;9.20;97.20;;;;;;5009495;28;20037;-57
2022/04/13 04:15:17;;;;;;;5.07;4.13;;;9.20;97.50;;;;;;5009206;28;20061;-58
2022/04/13 04:17:43;;;;;;;5.82;4.25;;;9.20;97.50;;;;;;5009776;28;20038;-56
2022/04/13 04:20:09;;;;;;;7.05;4.28;;;9.20;97.80;;;;;;5010191;28;20045;-60
2022/04/13 04:22:35;;;;;;;5.85;4.45;;;9.20;97.50;;;;;;5010163;28;20121;-58
2022/04/13 04:25:05;;;;;;;7.97;4.93;;;9.10;97.80;;;;;;5010319;28;20021;-57
2022/04/13 04:27:31;;;;;;;5.85;3.88;;;9.10;97.90;;;;;;5010072;28;20022;-57
2022/04/13 04:29:57;;;;;;;5.00;3.97;;;9.10;98.10;;;;;;5010112;28;20080;-60
2022/04/13 04:32:23;;;;;;;5.75;4.22;;;9.10;97.90;;;;;;5010089;28;20032;-59
2022/04/13 04:34:48;;;;;;;6.70;3.90;;;9.10;98.40;;;;;;5009850;28;20018;-56
2022/04/13 04:37:14;;;;;;;7.95;4.35;;;9.10;98.00;;;;;;5009237;28;20029;-59
2022/04/13 04:39:39;;;;;;;6.28;4.38;;;9.00;98.50;;;;;;5010165;28;20087;-56
2022/04/13 04:42:05;;;;;;;4.78;3.75;;;9.00;98.70;;;;;;5009915;28;20033;-57
2022/04/13 04:44:31;;;;;;;6.65;4.47;;;9.00;98.60;;;;;;5009886;28;20564;-55
2022/04/13 04:46:57;;;;;;;7.95;4.55;;;9.00;99.00;;;;;;5010101;28;20049;-59
2022/04/13 04:49:22;;;;;;;8.02;4.75;;;9.00;98.90;;;;;;5009903;28;20107;-59
2022/04/13 04:51:48;;;;;;;6.85;4.50;;;9.00;99.20;;;;;;5008820;28;20029;-60
2022/04/13 04:54:13;;;;;;;4.15;3.50;;;8.90;99.60;;;;;;5008801;28;20118;-58
2022/04/13 04:56:39;;;;;;;5.30;3.50;;;8.90;99.20;;;;;;5009415;28;20041;-57
2022/04/13 04:59:05;;;;;;;8.05;4.47;;;8.90;99.40;;;;;;5009838;28;20025;-56
2022/04/13 05:01:30;;;;;;;5.93;4.05;;;8.90;99.90;;;;;;5010094;28;20026;-57
2022/04/13 05:03:56;;;;;;;5.68;4.38;;;8.90;99.90;;;;;;5009859;28;20025;-57
2022/04/13 05:06:23;;;;;;;6.72;4.78;;;8.90;99.90;;;;;;5009893;28;20022;-56
2022/04/13 05:08:50;;;;;;;6.53;4.40;;;8.90;99.70;;;;;;5010064;28;20500;-56
2022/04/13 05:11:16;;;;;;;6.50;5.13;;;8.90;99.90;;;;;;5010010;28;20030;-60
2022/04/13 05:13:45;;;;;;;5.97;4.95;;;8.90;99.90;;;;;;5010499;28;20115;-60
2022/04/13 05:16:12;;;;;;;5.57;4.10;;;8.90;99.90;;;;;;5010200;28;20035;-59
2022/04/13 05:18:37;;;;;;;7.55;5.07;;;8.90;99.90;;;;;;5010011;28;20380;-60
2022/04/13 05:21:03;;;;;;;7.30;4.55;;;8.90;99.90;;;;;;5010047;28;20018;-60
2022/04/13 05:23:29;;;;;;;7.03;5.00;;;8.90;99.90;;;;;;5009645;28;20123;-59
2022/04/13 05:25:54;;;;;;;5.78;4.22;;;8.90;99.90;;;;;;5010848;28;20057;-60
2022/04/13 05:28:20;;;;;;;8.57;4.53;;;9.00;99.90;;;;;;5013748;28;20022;-60
2022/04/13 05:30:45;;;;;;;6.70;3.95;;;9.00;99.90;;;;;;5013710;28;20048;-60
2022/04/13 05:33:12;;;;;;;7.28;4.50;;;9.00;99.90;;;;;;5013075;28;20018;-58
2022/04/13 05:35:38;;;;;;;7.60;4.53;;;9.00;99.90;;;;;;5012358;28;20033;-59
2022/04/13 05:38:05;;;;;;;5.25;4.63;;;9.00;99.90;;;;;;5013117;28;20034;-59
2022/04/13 05:40:30;;;;;;;5.90;4.65;;;9.10;99.90;;;;;;5013661;28;20026;-60
2022/04/13 05:42:56;;;;;;;5.45;4.45;;;9.10;99.90;;;;;;5013257;28;20110;-60
2022/04/13 05:45:22;;;;;;;6.32;4.38;;;9.10;99.90;;;;;;5013148;28;20069;-59
2022/04/13 05:47:48;;;;;;;8.25;5.05;;;9.20;99.90;;;;;;5013349;28;20100;-58
2022/04/13 05:50:14;;;;;;;7.78;5.50;;;9.20;99.90;;;;;;5012856;28;20495;-58
2022/04/13 05:52:41;;;;;;;5.95;4.68;;;9.20;99.90;;;;;;5012653;28;20022;-59
2022/04/13 05:55:08;;;;;;;5.63;4.93;;;9.20;99.90;;;;;;5011708;28;20029;-59
2022/04/13 05:57:34;;;;;;;5.63;4.18;;;9.30;99.90;;;;;;5013156;28;20125;-58
2022/04/13 05:59:59;;;;;;;6.40;4.40;;;9.30;99.90;;;;;;4999373;28;20026;-58
2022/04/13 06:02:25;;;;;;;6.38;4.35;;;9.40;99.90;;;;;;5007944;28;20040;-60
2022/04/13 06:04:51;;;;;;;6.70;5.05;;;9.40;99.90;;;;;;5021485;28;20535;-60
2022/04/13 06:07:17;;;;;;;10.98;5.20;;;9.40;99.90;;;;;;5006236;28;20080;-60
2022/04/13 06:09:42;;;;;;;7.90;4.85;;;9.40;99.90;;;;;;4993385;28;20022;-59
2022/04/13 06:12:09;;;;;;;7.05;5.03;;;9.50;99.90;;;;;;5010906;28;20097;-58
2022/04/13 06:14:35;;;;;;;6.80;5.18;;;9.50;99.90;;;;;;5029693;22;20019;-51
2022/04/13 06:17:00;;;;;;;7.15;5.35;;;9.50;99.90;;;;;;4972602;28;20034;-55
2022/04/13 06:19:26;;;;;;;6.72;5.22;;;9.60;99.90;;;;;;4973552;28;20038;-55
2022/04/13 06:21:52;;;;;;;8.85;5.03;;;9.60;99.90;;;;;;4973610;28;20100;-53
2022/04/13 06:24:17;;;;;;;6.25;5.22;;;9.60;99.90;;;;;;4973238;28;20031;-54
2022/04/13 06:26:43;;;;;;;8.57;5.32;;;9.70;99.90;;;;;;4973318;28;20429;-51
2022/04/13 06:29:08;;;;;;;7.72;5.20;;;9.70;99.90;;;;;;4973299;28;20031;-52
2022/04/13 06:31:35;;;;;;;7.15;5.03;;;9.80;99.90;;;;;;4973017;28;20019;-53
2022/04/13 06:34:00;;;;;;;6.82;4.85;;;9.90;99.90;;;;;;4973057;28;20106;-53
2022/04/13 06:36:26;;;;;;;7.80;4.88;;;10.00;99.90;;;;;;4972680;28;20537;-54
2022/04/13 06:38:52;;;;;;;7.32;5.03;;;10.10;99.90;;;;;;4973160;28;20426;-56
2022/04/13 06:41:17;;;;;;;6.72;5.32;;;10.20;99.90;;;;;;4973294;28;20109;-56
2022/04/13 06:43:43;;;;;;;7.97;5.55;;;10.30;99.90;;;;;;4972846;28;20027;-54
2022/04/13 06:46:09;;;;;;;8.05;5.82;;;10.40;99.90;;;;;;4975574;28;20027;-54
2022/04/13 06:48:35;;;;;;;11.43;5.30;;;10.50;99.20;;;;;;4972846;28;20038;-57
2022/04/13 06:51:03;;;;;;;7.63;5.43;;;10.70;99.90;;;;;;4972920;28;20019;-53
2022/04/13 06:53:29;;;;;;;7.35;5.43;;;10.80;99.50;;;;;;4972131;28;20065;-56
2022/04/13 06:55:54;;;;;;;6.35;4.88;;;10.90;99.90;;;;;;4972727;28;20152;-57
2022/04/13 06:58:20;;;;;;;7.57;5.65;;;11.00;99.10;;;;;;4972860;28;20113;-53
2022/04/13 07:00:46;;;;;;;7.55;5.55;;;11.20;99.30;;;;;;4972137;28;20045;-55
2022/04/13 07:03:12;;;;;;;7.00;5.03;;;11.20;98.70;;;;;;4972491;28;20023;-55
2022/04/13 07:05:38;;;;;;;7.53;5.75;;;11.40;99.00;;;;;;4972023;28;20414;-54
2022/04/13 07:08:04;;;;;;;7.22;5.40;;;11.50;98.30;;;;;;4972726;28;20108;-56
2022/04/13 07:10:30;;;;;;;8.23;5.30;;;11.60;98.70;;;;;;4972244;28;20030;-54
2022/04/13 07:12:57;;;;;;;9.65;5.88;;;11.80;98.10;;;;;;4972517;28;20050;-52
2022/04/13 07:15:23;;;;;;;9.57;5.75;;;11.80;96.50;;;;;;4971805;28;20109;-55
2022/04/13 07:17:48;;;;;;;6.80;6.10;;;11.90;97.90;;;;;;4972456;28;20213;-54
2022/04/13 07:20:14;;;;;;;7.45;5.60;;;12.00;97.10;;;;;;4972083;28;20031;-56
2022/04/13 07:22:51;;;;;;;8.68;5.82;;;12.00;96.70;;;;;;4970646;28;20035;-51
2022/04/13 07:25:19;;;;;;;;;;;12.00;96.80;;;;;;4972479;28;20065;-55
2022/04/13 07:27:46;;;;;;;7.00;5.95;;;12.10;98.00;;;;;;4972077;28;19913;-52
2022/04/13 07:30:16;;;;;;;11.25;5.85;;;12.10;97.10;;;;;;4971985;28;20042;-51
2022/04/13 07:32:45;;;;;;;9.20;6.53;;;12.10;96.70;;;;;;4972201;28;20453;-53
2022/04/13 07:35:11;;;;;;;8.23;5.60;;;12.20;97.10;;;;;;4971882;28;20510;-51
2022/04/13 07:37:39;;;;;;;9.98;5.90;;;12.40;98.30;;;;;;4972215;28;20027;-54
2022/04/13 07:40:11;;;;;;;8.88;5.47;;;12.60;97.30;;;;;;4971569;28;20429;-55
2022/04/13 07:42:37;;;;;;;8.48;6.03;;;12.90;96.80;;;;;;4971889;28;20041;-52
2022/04/13 07:45:04;;;;;;;9.90;6.00;;;13.20;97.20;;;;;;4971353;28;20077;-54
2022/04/13 07:47:30;;;;;;;7.68;5.72;;;13.40;95.70;;;;;;4971912;28;20035;-54
2022/04/13 07:49:56;;;;;;;8.73;5.38;;;13.60;94.80;;;;;;4970320;28;20069;-55
2022/04/13 07:52:22;;;;;;;7.25;5.55;;;13.70;95.70;;;;;;4970614;28;20019;-52
2022/04/13 07:54:47;;;;;;;9.38;6.15;;;13.90;95.00;;;;;;4971021;28;20031;-53
2022/04/13 07:57:13;;;;;;;11.18;5.70;;;14.10;95.30;;;;;;4971698;28;20041;-55
2022/04/13 07:59:40;;;;;;;8.82;5.75;;;14.20;95.60;;;;;;4971056;28;20033;-53
2022/04/13 08:02:06;;;;;;;8.20;5.85;;;14.40;94.90;;;;;;4971344;28;20034;-53
2022/04/13 08:04:34;;;;;;;10.43;5.85;;;14.60;93.30;;;;;;4970877;28;20038;-55
2022/04/13 08:06:59;;;;;;;8.60;6.05;;;14.80;94.60;;;;;;4971341;28;20102;-52
2022/04/13 08:09:25;;;;;;;7.22;5.43;;;14.90;94.50;;;;;;4971187;28;20632;-54
2022/04/13 08:11:53;;;;;;;9.07;6.13;;;15.10;94.40;;;;;;4971563;28;20031;-53
2022/04/13 08:14:20;;;;;;;7.30;5.18;;;15.30;90.90;;;;;;4971170;28;20394;-52
2022/04/13 08:16:45;;;;;;;8.88;6.00;;;15.30;91.40;;;;;;4971514;28;20027;-53
2022/04/13 08:19:11;;;;;;;9.45;5.90;;;15.50;92.90;;;;;;4971177;28;20482;-53
2022/04/13 08:21:38;;;;;;;7.93;5.40;;;15.70;91.60;;;;;;4954893;28;20027;-53
2022/04/13 08:24:05;;;;;;;6.57;5.70;;;15.90;93.00;;;;;;4956845;28;20046;-53
2022/04/13 08:26:31;;;;;;;7.15;5.32;;;16.00;91.00;;;;;;4951261;28;20390;-51
2022/04/13 08:28:56;;;;;;;8.25;6.60;;;16.20;92.00;;;;;;4952426;28;20039;-53
2022/04/13 08:31:22;;;;;;;7.55;5.82;;;16.30;90.80;;;;;;4951469;28;20031;-54
2022/04/13 08:33:48;;;;;;;9.05;6.25;;;16.40;90.10;;;;;;4951955;28;20135;-53
2022/04/13 08:36:14;;;;;;;8.85;5.90;;;16.60;92.40;;;;;;4954279;28;20050;-56
2022/04/13 08:38:40;;;;;;;9.00;6.20;;;16.70;90.70;;;;;;4961724;28;20019;-54
2022/04/13 08:41:14;;;;;;;8.30;5.22;;;16.60;89.80;;;;;;4953133;28;20023;-57
2022/04/13 08:43:51;;;;;;;8.57;6.60;;;16.60;90.80;;;;;;4963275;28;20023;-57
2022/04/13 08:46:25;;;;;;;8.77;6.07;;;16.60;91.40;;;;;;4959205;28;20023;-55
2022/04/13 08:48:52;;;;;;;8.60;6.50;;;16.50;91.00;;;;;;4969487;28;20103;-53
2022/04/13 08:51:21;;;;;;;8.77;6.15;;;16.60;91.10;;;;;;4970099;28;20174;-56
2022/04/13 08:53:57;;;;;;;10.30;6.53;;;16.70;91.50;;;;;;4969858;28;20157;-55
2022/04/13 08:56:23;;;;;;;7.68;6.18;;;16.70;91.20;;;;;;4970861;28;20509;-54
2022/04/13 08:59:03;;;;;;;7.60;6.40;;;16.80;91.30;;;;;;4970105;28;20066;-55
2022/04/13 09:01:57;;;;;;;8.65;6.35;;;17.00;92.00;;;;;;4970613;28;20049;-55
2022/04/13 09:04:26;;;;;;;9.63;6.88;;;17.00;90.60;;;;;;4960444;28;20485;-52
2022/04/13 09:06:55;;;;;;;9.48;6.28;;;17.00;91.70;;;;;;4970786;28;20165;-56
2022/04/13 09:09:31;;;;;;;9.70;6.35;;;17.30;91.50;;;;;;4970512;28;20035;-56
2022/04/13 09:11:58;;;;;;;10.23;6.70;;;17.50;91.40;;;;;;4970845;28;20054;-55
2022/04/13 09:14:27;;;;;;;15.30;6.82;;;17.70;90.60;;;;;;4970315;28;20034;-56
2022/04/13 09:16:53;;;;;;;10.05;6.90;;;17.80;89.90;;;;;;4970268;28;20035;-55
2022/04/13 09:19:19;;;;;;;8.57;6.63;;;17.80;87.20;;;;;;4970565;28;20117;-53
2022/04/13 09:21:45;;;;;;;11.30;7.03;;;17.70;89.30;;;;;;4970740;28;20027;-55
2022/04/13 09:24:12;;;;;;;7.68;6.50;;;17.60;90.50;;;;;;4970458;28;20030;-54
2022/04/13 09:26:39;;;;;;;10.77;6.70;;;17.70;90.70;;;;;;4970650;28;20027;-57
2022/04/13 09:29:05;;;;;;;9.77;6.35;;;17.90;90.40;;;;;;4970731;28;20030;-58
2022/04/13 09:31:31;;;;;;;10.63;6.82;;;18.20;90.00;;;;;;4970603;28;20137;-54
2022/04/13 09:33:56;;;;;;;10.35;6.50;;;18.40;89.80;;;;;;4970445;28;20058;-56
2022/04/13 09:36:22;;;;;;;8.43;6.45;;;18.60;90.30;;;;;;4970315;28;20614;-58
2022/04/13 09:38:52;;;;;;;7.55;6.25;;;18.70;90.10;;;;;;4970466;28;20089;-52
2022/04/13 09:41:17;;;;;;;7.53;6.18;;;18.80;86.50;;;;;;4970694;28;20038;-56
2022/04/13 09:43:52;;;;;;;13.40;7.72;;;19.00;86.90;;;;;;4970150;28;20019;-54
2022/04/13 09:46:29;;;;;;;8.88;6.85;;;19.00;87.50;;;;;;4979173;28;20034;-57
2022/04/13 09:49:07;;;;;;;11.30;6.80;;;19.20;89.80;;;;;;4973760;28;20126;-57
2022/04/13 09:51:37;;;;;;;10.55;6.13;;;19.30;85.70;;;;;;4970262;28;20038;-55
2022/04/13 09:54:11;;;;;;;10.45;7.80;;;19.50;89.20;;;;;;4969551;28;20023;-57
2022/04/13 09:56:38;;;;;;;10.43;6.35;;;19.60;86.50;;;;;;4970042;28;20026;-57
2022/04/13 09:59:05;;;;;;;9.77;7.35;;;19.70;87.90;;;;;;4970252;28;20023;-56
2022/04/13 10:01:33;;;;;;;14.10;7.22;;;19.80;86.50;;;;;;4970104;28;20019;-58
2022/04/13 10:03:59;;;;;;;10.15;7.05;;;19.80;85.80;;;;;;4970148;28;20460;-55
2022/04/13 10:06:28;;;;;;;8.73;7.15;;;19.80;84.90;;;;;;4969822;28;20105;-56
2022/04/13 10:09:08;;;;;;;12.35;6.45;;;19.70;83.10;;;;;;4970420;28;20027;-56
2022/04/13 10:11:35;;;;;;;12.05;6.97;;;19.70;86.40;;;;;;4970630;28;20046;-55
2022/04/13 10:14:09;;;;;;;10.18;6.90;;;19.80;88.40;;;;;;4988762;28;20508;-52
2022/04/13 10:16:35;;;;;;;12.13;7.65;;;19.80;87.40;;;;;;4991587;28;20039;-57
2022/04/13 10:19:03;;;;;;;11.95;8.02;;;19.80;85.00;;;;;;4972162;28;20094;-54
2022/04/13 10:21:43;;;;;;;10.43;7.35;;;19.80;85.60;;;;;;4973285;28;20019;-58
2022/04/13 10:24:23;;;;;;;12.13;7.93;;;19.70;84.30;;;;;;4973336;28;20062;-56
2022/04/13 10:27:05;;;;;;;17.35;7.68;;;19.70;83.70;;;;;;4973072;28;20460;-54
2022/04/13 10:29:35;;;;;;;12.23;7.70;;;19.70;84.20;;;;;;4973257;28;20065;-56
2022/04/13 10:32:14;;;;;;;10.85;7.70;;;19.80;85.30;;;;;;4973083;28;20397;-57
2022/04/13 10:34:51;;;;;;;12.60;7.93;;;19.90;83.80;;;;;;4973137;28;20045;-54
2022/04/13 10:37:19;;;;;;;13.82;9.20;;;20.00;84.90;;;;;;4973006;28;20532;-53
2022/04/13 10:39:46;;;;;;;12.82;8.18;;;20.00;85.30;;;;;;4971705;28;20038;-55
2022/04/13 10:42:14;;;;;;;13.57;9.02;;;20.10;86.70;;;;;;4973077;28;20624;-55
2022/04/13 10:44:53;;;;;;;12.07;8.60;;;20.20;89.20;;;;;;4971332;28;20039;-56
2022/04/13 10:47:29;;;;;;;13.18;8.95;;;20.40;86.70;;;;;;4973077;28;20027;-56
2022/04/13 10:50:00;;;;;;;10.23;7.47;;;20.50;86.30;;;;;;4973288;28;20378;-56
2022/04/13 10:52:32;;;;;;;12.50;8.00;;;20.70;87.70;;;;;;4972629;28;20444;-56
2022/04/13 10:55:07;;;;;;;14.00;8.50;;;20.90;88.70;;;;;;4972901;28;20073;-58
2022/04/13 10:57:41;;;;;;;12.97;9.40;;;20.90;86.00;;;;;;4972456;28;20165;-57
2022/04/13 11:00:10;;;;;;;14.25;8.95;;;20.90;80.60;;;;;;4972719;28;20055;-57
2022/04/13 11:02:56;;;;;;;13.50;8.00;;;21.00;82.90;;;;;;4972358;28;20034;-57
2022/04/13 11:05:22;;;;;;;11.45;8.43;;;20.90;83.20;;;;;;4971987;28;20077;-52
2022/04/13 11:07:59;;;;;;;13.50;8.27;;;20.90;80.50;;;;;;4971969;28;20041;-58
2022/04/13 11:10:26;;;;;;;14.88;9.27;;;21.00;80.70;;;;;;4972362;28;20062;-57
2022/04/13 11:12:52;;;;;;;12.40;8.30;;;21.10;82.80;;;;;;4972362;28;20085;-58
2022/04/13 11:15:39;;;;;;;16.15;7.90;;;21.10;85.60;;;;;;4971845;28;20037;-58
2022/04/13 11:18:11;;;;;;;13.52;8.63;;;21.20;84.60;;;;;;4972510;28;20034;-57
2022/04/13 11:20:37;;;;;;;14.23;8.70;;;21.30;82.10;;;;;;4972443;28;20027;-58
2022/04/13 11:23:07;;;;;;;17.48;10.73;;;21.40;80.20;;;;;;4971965;28;20390;-58
2022/04/13 11:25:47;;;;;;;15.27;10.25;;;21.50;82.20;;;;;;4955195;28;20646;-57
2022/04/13 11:28:31;;;;;;;13.77;9.13;;;21.60;81.10;;;;;;4972643;28;20399;-59
2022/04/13 11:31:07;;;;;;;15.60;9.20;;;21.70;82.20;;;;;;4972005;28;20031;-55
2022/04/13 11:33:49;;;;;;;15.40;8.52;;;21.80;80.50;;;;;;4971978;28;20126;-59
2022/04/13 11:36:15;;;;;;;14.43;9.57;;;21.90;81.50;;;;;;4971608;28;20027;-57
2022/04/13 11:38:51;;;;;;;15.13;9.13;;;21.90;79.20;;;;;;4971935;28;20061;-57
2022/04/13 11:41:18;;;;;;;15.43;8.88;;;21.90;81.10;;;;;;4971949;28;20045;-57
2022/04/13 11:43:45;;;;;;;13.43;9.07;;;21.90;78.90;;;;;;4971526;28;20551;-58
2022/04/13 11:46:36;;;;;;;13.57;9.27;;;22.00;79.60;;;;;;4971622;28;20030;-58
2022/04/13 11:49:04;;;;;;;16.17;8.93;;;22.10;80.50;;;;;;4971888;28;20023;-56
2022/04/13 11:51:30;;;;;;;17.83;9.95;;;22.30;79.00;;;;;;4971641;28;20027;-58
2022/04/13 11:54:11;;;;;;;15.90;9.98;;;22.30;78.10;;;;;;4970853;28;20019;-55
2022/04/13 11:56:52;;;;;;;16.33;9.57;;;22.40;79.40;;;;;;4969401;28;20085;-54
2022/04/13 11:59:47;;;;;;;19.15;9.98;;;22.60;83.00;;;;;;4971442;28;20413;-50
2022/04/13 12:02:15;;;;;;;12.15;8.57;;;22.60;81.50;;;;;;4969356;28;20111;-52
2022/04/13 12:04:44;;;;;;;18.40;10.43;;;22.70;81.10;;;;;;4989123;28;20023;-50
2022/04/13 12:07:11;;;;;;;16.05;9.20;;;22.70;80.50;;;;;;4989793;28;20097;-54
2022/04/13 12:09:37;;;;;;;16.88;9.98;;;22.70;81.40;;;;;;4981011;28;20014;-54
2022/04/13 12:12:03;;;;;;;19.00;10.98;;;22.80;79.90;;;;;;4971349;28;20027;-50
2022/04/13 12:14:36;;;;;;;16.15;9.30;;;22.70;80.20;;;;;;4970771;28;20481;-53
2022/04/13 12:17:02;;;;;;;20.15;10.82;;;22.80;80.30;;;;;;4971298;28;20058;-52
2022/04/13 12:19:46;;;;;;;14.95;9.45;;;22.80;82.20;;;;;;4971130;28;20034;-55
2022/04/13 12:22:16;;;;;;;18.95;9.50;;;22.90;84.20;;;;;;4970845;28;20365;-55
2022/04/13 12:25:05;;;;;;;15.88;10.13;;;22.90;81.50;;;;;;4970807;28;20023;-51
2022/04/13 12:27:31;;;;;;;19.75;9.32;;;22.90;82.40;;;;;;4970652;28;20023;-55
2022/04/13 12:30:16;;;;;;;15.40;8.90;;;22.80;79.60;;;;;;4970934;28;20026;-52
2022/04/13 12:32:48;;;;;;;14.82;8.05;;;22.70;82.00;;;;;;4970643;28;20105;-54
2022/04/13 12:35:15;;;;;;;14.73;9.30;;;22.90;83.80;;;;;;4969719;28;20035;-55
2022/04/13 12:37:55;;;;;;;14.90;8.73;;;23.00;81.50;;;;;;4969438;28;20042;-54
2022/04/13 12:40:26;;;;;;;17.42;9.43;;;23.00;81.50;;;;;;4971211;28;20094;-55
2022/04/13 12:42:52;;;;;;;16.95;9.40;;;23.10;82.60;;;;;;4970590;28;20034;-54
2022/04/13 12:45:26;;;;;;;21.45;9.63;;;23.10;79.90;;;;;;4971022;28;20054;-50
2022/04/13 12:47:52;;;;;;;14.18;8.70;;;23.10;81.10;;;;;;4970576;28;20043;-55
2022/04/13 12:50:18;;;;;;;15.32;8.77;;;23.00;81.80;;;;;;4970687;28;20089;-53
2022/04/13 12:52:43;;;;;;;12.95;7.80;;;23.10;81.70;;;;;;4970404;28;20027;-57
2022/04/13 12:55:09;;;;;;;14.82;8.10;;;23.10;83.90;;;;;;4970529;28;20027;-52